createdAt,value
2022-09-12T00:04:12.416Z,2.96
2022-09-12T00:09:19.735Z,2.95
2022-09-12T00:14:27.756Z,2.96
2022-09-12T00:19:34.553Z,2.95
2022-09-12T00:24:42.518Z,2.95
2022-09-12T00:29:50.406Z,2.96
2022-09-12T00:34:57.125Z,2.95
2022-09-12T00:40:04.170Z,2.96
2022-09-12T00:45:10.683Z,2.95
2022-09-12T00:50:17.819Z,2.95
2022-09-12T00:55:25.931Z,2.95
2022-09-12T01:00:33.601Z,2.95
2022-09-12T01:05:41.998Z,2.95
2022-09-12T01:10:49.683Z,2.95
2022-09-12T01:15:57.528Z,2.96
2022-09-12T01:21:05.376Z,2.95
2022-09-12T01:26:13.398Z,2.96
2022-09-12T01:31:20.535Z,2.96
2022-09-12T01:36:27.949Z,2.95
2022-09-12T01:41:37.005Z,2.96
2022-09-12T01:46:44.934Z,2.96
2022-09-12T01:51:52.921Z,2.95
2022-09-12T01:56:59.735Z,2.95
2022-09-12T02:02:08.085Z,2.94
2022-09-12T02:07:15.861Z,2.96
2022-09-12T02:12:21.976Z,2.95
2022-09-12T02:17:30.498Z,2.95
2022-09-12T02:22:38.374Z,2.95
2022-09-12T02:27:45.588Z,2.95
2022-09-12T02:32:53.838Z,2.95
2022-09-12T02:38:01.200Z,2.95
2022-09-12T02:43:08.807Z,2.96
2022-09-12T02:48:15.072Z,2.95
2022-09-12T02:53:22.344Z,2.97
2022-09-12T02:58:30.287Z,2.95
2022-09-12T03:03:38.513Z,2.94
2022-09-12T03:08:46.873Z,2.95
2022-09-12T03:13:54.174Z,2.96
2022-09-12T03:19:00.700Z,2.95
2022-09-12T03:24:09.691Z,2.96
2022-09-12T03:29:17.364Z,2.95
2022-09-12T03:34:24.319Z,2.95
2022-09-12T03:39:32.142Z,2.95
2022-09-12T03:44:39.292Z,2.95
2022-09-12T03:49:47.597Z,2.96
2022-09-12T03:54:54.977Z,2.95
2022-09-12T04:00:02.710Z,2.95
2022-09-12T04:05:11.281Z,2.95
2022-09-12T04:10:20.133Z,2.95
2022-09-12T04:15:27.856Z,2.94
2022-09-12T04:20:41.163Z,2.95
2022-09-12T04:25:47.898Z,2.95
2022-09-12T04:30:55.586Z,2.95
2022-09-12T04:36:02.783Z,2.95
2022-09-12T04:41:10.013Z,2.95
2022-09-12T04:46:17.856Z,2.94
2022-09-12T04:51:25.021Z,2.95
2022-09-12T04:56:32.215Z,2.94
2022-09-12T05:01:40.576Z,2.94
2022-09-12T05:06:47.903Z,2.94
2022-09-12T05:11:56.408Z,2.95
2022-09-12T05:17:04.289Z,2.95
2022-09-12T05:22:18.458Z,2.96
2022-09-12T05:27:25.781Z,2.96
2022-09-12T05:32:34.173Z,2.94
2022-09-12T05:37:41.340Z,2.96
2022-09-12T05:42:48.894Z,2.95
2022-09-12T05:47:56.399Z,2.95
2022-09-12T05:53:03.577Z,2.95
2022-09-12T05:58:12.038Z,2.96
2022-09-12T06:03:20.545Z,2.95
2022-09-12T06:08:27.109Z,2.96
2022-09-12T06:13:34.298Z,2.96
2022-09-12T06:18:41.164Z,2.96
2022-09-12T06:23:49.587Z,2.96
2022-09-12T06:28:56.879Z,2.96
2022-09-12T06:34:04.385Z,2.96
2022-09-12T06:39:11.578Z,2.96
2022-09-12T06:44:20.670Z,2.96
2022-09-12T06:49:29.964Z,2.97
2022-09-12T06:54:37.125Z,2.97
2022-09-12T06:59:43.613Z,2.97
2022-09-12T07:04:52.049Z,2.97
2022-09-12T07:09:59.929Z,2.97
2022-09-12T07:15:08.383Z,2.97
2022-09-12T07:20:17.452Z,2.97
2022-09-12T07:25:26.676Z,2.97
2022-09-12T07:30:34.846Z,2.97
2022-09-12T07:35:42.438Z,2.97
2022-09-12T07:40:50.313Z,2.98
2022-09-12T07:45:59.144Z,2.97
2022-09-12T07:51:07.710Z,2.97
2022-09-12T07:56:14.650Z,2.98
2022-09-12T08:01:24.010Z,2.98
2022-09-12T08:06:30.943Z,2.98
2022-09-12T08:11:39.057Z,2.98
2022-09-12T08:16:45.659Z,2.98
2022-09-12T08:21:53.297Z,2.98
2022-09-12T08:27:00.730Z,2.99
2022-09-12T08:32:07.964Z,2.99
2022-09-12T08:37:13.821Z,2.98
2022-09-12T08:42:22.049Z,2.98
2022-09-12T08:47:29.848Z,2.98
2022-09-12T08:52:37.005Z,2.97
2022-09-12T08:57:44.523Z,2.98
2022-09-12T09:02:52.092Z,2.98
2022-09-12T09:07:59.583Z,2.99
2022-09-12T09:13:07.049Z,3.0
2022-09-12T09:18:14.638Z,2.99
2022-09-12T09:23:23.455Z,2.99
2022-09-12T09:28:30.487Z,3.0
2022-09-12T09:33:36.862Z,2.99
2022-09-12T09:38:44.062Z,2.99
2022-09-12T09:43:51.903Z,2.98
2022-09-12T09:48:58.663Z,3.0
2022-09-12T09:54:05.915Z,3.0
2022-09-12T09:59:13.356Z,3.0
2022-09-12T10:04:20.804Z,2.99
2022-09-12T10:09:27.834Z,2.99
2022-09-12T10:14:37.009Z,2.99
2022-09-12T10:19:45.770Z,3.0
2022-09-12T10:24:53.351Z,2.99
2022-09-12T10:30:02.508Z,3.01
2022-09-12T10:35:09.001Z,3.0
2022-09-12T10:40:15.584Z,3.0
2022-09-12T10:45:22.140Z,2.99
2022-09-12T10:50:31.772Z,2.98
2022-09-12T10:55:40.529Z,3.0
2022-09-12T11:00:47.965Z,2.99
2022-09-12T11:05:56.956Z,3.01
2022-09-12T11:11:04.101Z,2.99
2022-09-12T11:16:12.937Z,2.98
2022-09-12T11:21:20.746Z,2.99
2022-09-12T11:26:26.796Z,2.98
2022-09-12T11:31:35.007Z,3.01
2022-09-12T11:36:43.609Z,3.0
2022-09-12T11:41:50.415Z,3.0
2022-09-12T11:46:56.892Z,3.0
2022-09-12T11:52:04.803Z,2.98
2022-09-12T11:57:11.931Z,2.99
2022-09-12T12:02:19.820Z,3.0
2022-09-12T12:07:26.940Z,2.99
2022-09-12T12:12:34.138Z,2.98
2022-09-12T12:17:40.739Z,3.0
2022-09-12T12:22:47.960Z,2.99
2022-09-12T12:27:55.710Z,3.0
2022-09-12T12:33:02.332Z,2.99
2022-09-12T12:38:09.524Z,2.98
2022-09-12T12:43:17.291Z,2.99
2022-09-12T12:48:24.557Z,2.99
2022-09-12T12:53:31.745Z,2.99
2022-09-12T12:58:42.814Z,2.99
2022-09-12T13:03:50.005Z,2.99
2022-09-12T13:08:57.817Z,2.99
2022-09-12T13:14:05.305Z,3.0
2022-09-12T13:19:12.538Z,2.99
2022-09-12T13:24:18.918Z,3.0
2022-09-12T13:29:25.337Z,2.99
2022-09-12T13:34:33.307Z,3.0
2022-09-12T13:39:41.425Z,2.99
2022-09-12T13:44:49.235Z,2.99
2022-09-12T13:49:57.335Z,3.0
2022-09-12T13:55:06.425Z,3.0
2022-09-12T14:00:14.326Z,3.0
2022-09-12T14:05:20.867Z,3.0
2022-09-12T14:10:28.743Z,3.0
2022-09-12T14:15:39.199Z,3.0
2022-09-12T14:20:45.018Z,3.0
2022-09-12T14:25:51.595Z,2.99
2022-09-12T14:30:59.250Z,2.99
2022-09-12T14:36:06.618Z,2.99
2022-09-12T14:41:13.536Z,2.98
2022-09-12T14:46:22.616Z,2.98
2022-09-12T14:51:30.946Z,3.0
2022-09-12T14:56:37.988Z,2.98
2022-09-12T15:01:44.754Z,3.0
2022-09-12T15:06:51.785Z,3.0
2022-09-12T15:12:00.229Z,2.98
2022-09-12T15:17:07.427Z,2.98
2022-09-12T15:22:21.617Z,2.98
2022-09-12T15:27:30.085Z,2.97
2022-09-12T15:32:37.763Z,2.99
2022-09-12T15:37:45.199Z,2.99
2022-09-12T15:42:53.582Z,2.98
2022-09-12T15:48:00.683Z,2.98
2022-09-12T15:53:07.456Z,2.99
2022-09-12T15:58:14.976Z,2.98
2022-09-12T16:03:22.548Z,2.98
2022-09-12T16:08:29.841Z,2.98
2022-09-12T16:13:36.940Z,3.0
2022-09-12T16:18:44.650Z,2.97
2022-09-12T16:23:52.583Z,2.97
2022-09-12T16:29:00.288Z,2.98
2022-09-12T16:34:08.138Z,2.98
2022-09-12T16:39:15.464Z,2.97
2022-09-12T16:44:23.229Z,2.98
2022-09-12T16:49:31.133Z,2.97
2022-09-12T16:54:37.995Z,2.97
2022-09-12T16:59:45.532Z,2.97
2022-09-12T17:04:52.723Z,2.97
2022-09-12T17:09:58.658Z,2.97
2022-09-12T17:15:06.092Z,2.96
2022-09-12T17:20:13.625Z,2.97
2022-09-12T17:25:20.254Z,2.97
2022-09-12T17:30:27.467Z,2.96
2022-09-12T17:35:35.769Z,2.96
2022-09-12T17:40:43.645Z,2.96
2022-09-12T17:45:51.663Z,2.96
2022-09-12T17:50:59.419Z,2.97
2022-09-12T17:56:08.606Z,2.97
2022-09-12T18:01:17.296Z,2.96
2022-09-12T18:06:24.897Z,2.96
2022-09-12T18:11:32.082Z,2.96
2022-09-12T18:16:40.862Z,2.96
2022-09-12T18:21:48.132Z,2.96
2022-09-12T18:26:56.260Z,2.96
2022-09-12T18:32:04.034Z,2.97
2022-09-12T18:37:11.263Z,2.97
2022-09-12T18:42:19.674Z,2.96
2022-09-12T18:47:26.980Z,2.96
2022-09-12T18:52:34.427Z,2.96
2022-09-12T18:57:42.586Z,2.95
2022-09-12T19:02:49.986Z,2.96
2022-09-12T19:07:57.082Z,2.95
2022-09-12T19:13:04.972Z,2.97
2022-09-12T19:18:13.835Z,2.95
2022-09-12T19:23:23.580Z,2.96
2022-09-12T19:28:31.028Z,2.96
2022-09-12T19:33:38.904Z,2.95
2022-09-12T19:38:45.442Z,2.96
2022-09-12T19:43:53.267Z,2.96
2022-09-12T19:49:00.480Z,2.95
2022-09-12T20:17:24.651Z,2.95
2022-09-12T20:22:30.019Z,2.95
2022-09-12T20:27:43.936Z,2.95
2022-09-12T20:32:50.098Z,2.95
2022-09-12T20:37:57.378Z,2.95
2022-09-12T20:43:04.771Z,2.96
2022-09-12T20:48:11.780Z,2.95
2022-09-12T20:53:19.263Z,2.95
2022-09-12T20:58:27.981Z,2.95
2022-09-12T21:03:34.714Z,2.95
2022-09-12T21:08:42.842Z,2.95
2022-09-12T21:13:56.734Z,2.95
2022-09-12T21:19:03.927Z,2.95
2022-09-12T21:24:12.461Z,2.96
2022-09-12T21:29:21.203Z,2.95
2022-09-12T21:34:29.310Z,2.95
2022-09-12T21:39:37.862Z,2.95
2022-09-12T21:44:45.783Z,2.94
2022-09-12T21:49:52.839Z,2.95
2022-09-12T21:55:00.213Z,2.95
2022-09-12T22:00:08.213Z,2.95
2022-09-12T22:05:14.831Z,2.94
2022-09-12T22:10:23.574Z,2.95
2022-09-12T22:15:31.975Z,2.95
2022-09-12T22:20:41.110Z,2.95
2022-09-12T22:25:47.768Z,2.95
2022-09-12T22:30:55.488Z,2.95
2022-09-12T22:36:03.251Z,2.96
2022-09-12T22:41:10.650Z,2.95
2022-09-12T22:46:18.235Z,2.95
2022-09-12T22:51:25.033Z,2.95
2022-09-12T22:56:32.700Z,2.95
2022-09-12T23:01:40.329Z,2.95
2022-09-12T23:06:48.100Z,2.95
2022-09-12T23:11:55.593Z,2.94
2022-09-12T23:17:04.444Z,2.94
2022-09-12T23:22:12.099Z,2.94
2022-09-12T23:27:19.899Z,2.95
2022-09-12T23:32:28.940Z,2.95
2022-09-12T23:37:37.000Z,2.95
2022-09-12T23:42:45.144Z,2.94
2022-09-12T23:47:51.761Z,2.95
2022-09-12T23:52:58.473Z,2.94
2022-09-12T23:58:06.907Z,2.95
